Terminal Aerodrome Forecast
Issued by NWS Wilmington, NC

Home | Current Version | Previous Version | Text Only | Print | Product List | Glossary On
Versions: 1 2 3 4 5 6 7 8 9 10 11 12 13 14 15 16 17 18 19 20 21 22 23 24 25 26 27 28 29 30 31 32 33 34 35 36 37 38 39 40 41 42 43 44 45 46
977
FTUS42 KILM 191721
TAFFLO
TAF
KFLO 191721Z 1918/2018 15009KT P6SM BKN030 OVC070
     FM200200 18012G20KT P6SM VCSH SCT040 BKN150 WS020/19040KT
     FM200700 20015G25KT 4SM SHRA OVC015 WS020/19050KT
     FM200900 23014G25KT P6SM VCSH OVC010
     FM201400 27015G25KT P6SM OVC025
     FM201700 30015G25KT P6SM BKN030=

USA.gov is the U.S. government's official web portal to all federal, state and local government web resources and services.